Aeroporto :
LOGIN :

Iscrizione | Disclaimer

   EN    FR    IT 

 










Sommario :    VFR   VFR Marginale   IFR   IFR Intensivo   IFR Molto Intensivo
Visibilità : 
Base nubi : 
>= 8 km
>= 3000ft
5 / 8 km
1000 / 3000 ft
1500m / 5 km
500 / 1000 ft
800 / 1500m
200 / 500 ft
< 800m
< 200 ft
Simboli :   Temporali  Nebbia  Neve Forte  Precipitazioni Forti  Vento > 20 kt
SIGMETs :   Varie  Temporali  Ghiacco  Turbolenza  Onda orograficha  Ceneri Vulcaniche







- Altitudine del aeroporto : 1043 ft
- Codice IATA : SLD


LZSL - Sliac

ULTIMO METAR :
  • 191500Z 36007KT 330V030 CAVOK 09/M04 Q1023

METARs OBSOLETI :
  • 191430Z 36006KT 310V030 9999 FEW063 09/M06 Q1023
  • 191400Z 02004KT 340V060 9999 FEW063 10/M06 Q1022
  • 191330Z 01005KT 300V070 9999 FEW063 10/M06 Q1022
  • 191300Z 01005KT 340V050 9999 FEW063 10/M05 Q1022
  • 191230Z 36004KT 310V020 9999 FEW063 10/M06 Q1022

TAF TAF LZSL
Valido dal 19 a 15 ore il 20 a 00 ore UTC


191400Z 1915/2000 34006KT CAVOK
TEMPO 1915/1917 9999 FEW060 BKN100
Nessun NOTAM noto per questo aeroporto.



MetMap, La meteo Aeronautica in un colpo d'occhio ! - Copyright ORBIFLY Dicembre 2007 - Disclaimer

ORBIFLY MET'MAP TEAM :

Programmazione e sviluppo : Alexandra Zaïnal
Concezione e sviluppo : Baudouin d'Aumeries
Co-Programmazione e sviluppo : Marc-Olivier Méhu
Supporto tecnico e logistico : Manuel Goepfert
Aiuto per la traduzione : Arnaldo La Scala

Contatto : metmap@orbifly.com




FONTI E CREDITI :

   NOAA